Time;durP1;ratioP1;P1;durP2;ratioP2;P2;SDS_P1;SDS_P2;PMS_P1;PMS_P2;Temp;Humidity;BMP_temperature;BMP_pressure;BME280_temperature;BME280_humidity;BME280_pressure;Samples;Min_cycle;Max_cycle;Signal;HPM_P1;HPM_P2
2023/04/06 00:01:19;;;;;;;17.98;14.15;;;;;;;3.37;62.35;101625.31;6245186;23;20043;-88
2023/04/06 00:03:45;;;;;;;19.95;14.07;;;;;;;3.25;62.56;101614.91;6246626;23;20364;-89
2023/04/06 00:06:10;;;;;;;17.17;14.07;;;;;;;3.28;62.61;101616.63;6247673;23;19996;-88
2023/04/06 00:08:35;;;;;;;19.17;14.48;;;;;;;3.31;62.52;101617.50;6249339;23;20000;-90
2023/04/06 00:11:01;;;;;;;17.63;14.77;;;;;;;3.21;62.72;101615.81;6248374;23;20019;-89
2023/04/06 00:13:26;;;;;;;17.90;13.57;;;;;;;3.24;63.30;101614.03;6221646;23;20095;-89
2023/04/06 00:15:51;;;;;;;17.15;13.05;;;;;;;3.21;62.60;101616.69;6230056;23;20096;-88
2023/04/06 00:18:17;;;;;;;17.30;13.02;;;;;;;3.18;63.35;101610.59;6259748;23;20389;-87
2023/04/06 00:20:42;;;;;;;17.40;13.60;;;;;;;3.19;62.55;101612.31;6258833;23;20004;-85
2023/04/06 00:23:07;;;;;;;16.38;13.40;;;;;;;3.13;62.86;101600.06;6264543;23;20034;-89
2023/04/06 00:25:32;;;;;;;17.42;13.63;;;;;;;3.17;63.34;101612.31;6264882;23;20493;-89
2023/04/06 00:27:58;;;;;;;15.25;13.02;;;;;;;3.17;63.17;101606.19;6265614;23;20003;-91
2023/04/06 00:30:23;;;;;;;17.02;13.90;;;;;;;3.19;64.05;101604.44;6266264;22;19992;-90
2023/04/06 00:32:48;;;;;;;15.32;13.70;;;;;;;3.07;64.63;101589.63;6270030;22;20003;-90
2023/04/06 00:35:14;;;;;;;19.52;14.40;;;;;;;3.08;64.47;101594.00;6269735;22;20050;-90
2023/04/06 00:37:40;;;;;;;17.70;13.35;;;;;;;3.03;63.90;101587.03;6271802;22;20257;-89
2023/04/06 00:40:06;;;;;;;18.67;14.27;;;;;;;3.05;64.67;101598.41;6273357;22;20491;-89
2023/04/06 00:42:31;;;;;;;18.00;13.40;;;;;;;2.99;63.91;101586.19;6272551;22;20000;-89
2023/04/06 00:44:59;;;;;;;20.92;14.82;;;;;;;3.01;63.82;101589.69;6259532;22;20107;-89
2023/04/06 00:47:26;;;;;;;18.52;14.75;;;;;;;2.96;64.39;101587.06;6248608;22;20008;-91
2023/04/06 00:49:53;;;;;;;20.40;14.60;;;;;;;2.94;65.90;101580.09;6247761;23;20011;-90
2023/04/06 00:52:20;;;;;;;18.85;14.98;;;;;;;2.78;65.30;101574.06;6246557;23;20026;-90
2023/04/06 00:54:45;;;;;;;21.23;16.33;;;;;;;2.78;66.38;101581.94;6244448;23;20034;-90
2023/04/06 00:57:12;;;;;;;18.67;14.82;;;;;;;2.68;66.58;101583.78;6243994;23;20544;-90
2023/04/06 00:59:37;;;;;;;19.88;16.00;;;;;;;2.70;67.32;101575.88;6242951;23;20004;-87
2023/04/06 01:02:03;;;;;;;19.23;15.07;;;;;;;2.67;68.04;101571.50;6242389;23;20004;-90
2023/04/06 01:04:29;;;;;;;21.15;16.52;;;;;;;2.62;67.87;101570.66;6242818;23;20062;-90
2023/04/06 01:06:54;;;;;;;19.98;15.63;;;;;;;2.64;68.46;101568.91;6244357;23;20007;-89
2023/04/06 01:09:20;;;;;;;19.95;15.65;;;;;;;2.63;67.09;101563.66;6241245;23;20523;-90
2023/04/06 01:11:45;;;;;;;21.75;15.40;;;;;;;2.68;67.25;101557.50;6242868;23;20004;-90
2023/04/06 01:14:10;;;;;;;22.10;17.30;;;;;;;2.73;68.52;101560.94;6241616;23;20429;-90
2023/04/06 01:16:36;;;;;;;22.58;17.05;;;;;;;2.71;68.23;101552.19;6242208;23;20004;-90
2023/04/06 01:19:07;;;;;;;21.10;15.93;;;;;;;2.68;67.57;101556.63;6241701;23;20417;-89
2023/04/06 01:21:32;;;;;;;22.48;16.67;;;;;;;2.70;69.07;101560.09;6240221;23;20008;-90
2023/04/06 01:23:58;;;;;;;22.00;16.92;;;;;;;2.63;68.68;101556.63;6242062;23;20036;-90
2023/04/06 01:26:23;;;;;;;21.13;17.20;;;;;;;2.62;68.88;101544.38;6241238;23;20307;-89
2023/04/06 01:28:49;;;;;;;21.30;17.30;;;;;;;2.53;70.08;101543.56;6214258;23;20042;-89
2023/04/06 01:31:14;;;;;;;22.83;17.02;;;;;;;2.61;69.59;101547.91;6240666;23;20004;-89
2023/04/06 01:33:39;;;;;;;19.85;16.48;;;;;;;2.57;69.30;101546.16;6240417;23;20012;-90
2023/04/06 01:36:05;;;;;;;20.95;16.50;;;;;;;2.56;69.28;101544.44;6240682;23;20083;-91
2023/04/06 01:38:31;;;;;;;20.35;17.30;;;;;;;2.59;70.44;101544.41;6240321;23;20004;-90
2023/04/06 01:40:56;;;;;;;22.50;17.52;;;;;;;2.62;69.39;101539.13;6239448;23;20031;-89
2023/04/06 01:43:22;;;;;;;24.05;17.35;;;;;;;2.53;69.45;101522.56;6239409;23;20000;-89
2023/04/06 01:45:47;;;;;;;23.67;17.30;;;;;;;2.66;69.07;101534.72;6239013;23;20007;-90
2023/04/06 01:48:13;;;;;;;23.52;18.10;;;;;;;2.63;70.19;101529.47;6240428;22;20016;-90
2023/04/06 01:50:38;;;;;;;24.15;17.67;;;;;;;2.62;70.24;101523.34;6211205;23;20008;-89
2023/04/06 01:53:03;;;;;;;25.23;17.95;;;;;;;2.68;70.37;101533.84;6239774;23;20743;-89
2023/04/06 01:55:29;;;;;;;23.67;18.92;;;;;;;2.68;70.46;101518.06;6240772;23;20038;-89
2023/04/06 01:57:54;;;;;;;24.05;18.02;;;;;;;2.72;71.34;101524.19;6241914;23;20012;-90
2023/04/06 02:00:20;;;;;;;23.02;17.95;;;;;;;2.74;70.80;101522.41;6257037;23;20004;-90
2023/04/06 02:02:45;;;;;;;22.30;18.52;;;;;;;2.79;71.12;101520.59;6258674;23;20026;-88
2023/04/06 02:05:11;;;;;;;21.67;17.75;;;;;;;2.76;69.85;101502.25;6255888;23;20028;-89
2023/04/06 02:07:36;;;;;;;22.55;17.65;;;;;;;2.85;70.09;101515.31;6258125;23;20035;-87
2023/04/06 02:10:02;;;;;;;22.40;18.27;;;;;;;2.92;69.76;101522.22;6244043;23;20008;-89
2023/04/06 02:12:27;;;;;;;23.27;18.35;;;;;;;2.96;69.87;101520.44;6244622;23;20000;-90
2023/04/06 02:14:53;;;;;;;22.45;18.02;;;;;;;2.97;69.16;101509.94;6244353;23;20058;-89
2023/04/06 02:17:18;;;;;;;26.83;19.80;;;;;;;3.02;69.40;101504.63;6242166;23;20035;-90
2023/04/06 02:19:43;;;;;;;22.30;18.73;;;;;;;3.02;69.12;101503.78;6239862;23;20700;-87
2023/04/06 02:22:09;;;;;;;24.27;19.05;;;;;;;3.05;69.29;101494.06;6239260;23;20034;-89
2023/04/06 02:24:35;;;;;;;22.67;18.02;;;;;;;3.06;69.64;101505.47;6238937;23;20093;-90
2023/04/06 02:27:00;;;;;;;23.42;19.52;;;;;;;3.00;69.85;101485.34;6240238;23;20618;-90
2023/04/06 02:29:26;;;;;;;23.60;18.95;;;;;;;3.10;69.67;101497.53;6239861;23;20008;-90
2023/04/06 02:31:51;;;;;;;23.80;19.95;;;;;;;3.11;69.94;101501.91;6243033;23;20087;-90
2023/04/06 02:34:19;;;;;;;22.40;19.42;;;;;;;3.11;69.59;101501.03;6241739;23;20016;-90
2023/04/06 02:36:46;;;;;;;26.65;19.88;;;;;;;3.08;69.21;101494.03;6241605;23;19992;-90
2023/04/06 02:39:11;;;;;;;23.67;20.30;;;;;;;3.08;69.36;101480.88;6249021;23;20000;-89
2023/04/06 02:41:37;;;;;;;25.98;20.40;;;;;;;3.11;69.73;101488.75;6261037;23;19999;-89
2023/04/06 02:44:03;;;;;;;25.40;18.75;;;;;;;3.15;70.05;101492.25;6234563;23;20038;-87
2023/04/06 02:46:28;;;;;;;24.50;20.02;;;;;;;3.00;70.19;101467.81;6260289;22;20023;-91
2023/04/06 02:48:53;;;;;;;25.65;20.60;;;;;;;3.14;69.77;101482.59;6266294;22;20016;-89
2023/04/06 02:51:19;;;;;;;23.40;20.15;;;;;;;3.12;69.74;101481.72;6266500;22;20004;-90
2023/04/06 02:53:44;;;;;;;28.50;21.20;;;;;;;3.11;70.55;101470.34;6258727;22;20414;-91
2023/04/06 02:56:10;;;;;;;25.88;21.15;;;;;;;3.12;69.25;101465.97;6244990;23;20026;-90
2023/04/06 02:58:35;;;;;;;26.52;20.73;;;;;;;3.10;70.06;101468.63;6243475;23;20062;-90
2023/04/06 03:01:00;;;;;;;23.15;19.70;;;;;;;3.13;70.25;101467.69;6243668;23;20095;-89
2023/04/06 03:03:26;;;;;;;25.95;20.65;;;;;;;3.16;70.32;101462.41;6242329;23;20000;-89
2023/04/06 03:05:51;;;;;;;29.67;21.70;;;;;;;3.10;70.08;101463.34;6245221;23;20000;-89
2023/04/06 03:08:16;;;;;;;26.90;21.60;;;;;;;3.14;70.43;101464.19;6215596;23;20008;-88
2023/04/06 03:10:42;;;;;;;30.25;23.17;;;;;;;3.15;69.64;101460.66;6241766;23;20004;-90
2023/04/06 03:13:07;;;;;;;29.38;22.42;;;;;;;3.17;70.75;101453.63;6241509;23;20763;-90
2023/04/06 03:15:32;;;;;;;28.48;21.88;;;;;;;3.09;70.77;101444.94;6240728;23;20036;-89
2023/04/06 03:17:58;;;;;;;27.35;21.75;;;;;;;3.12;70.27;101451.03;6240276;23;20073;-89
2023/04/06 03:20:23;;;;;;;24.42;20.33;;;;;;;3.14;70.35;101453.69;6238795;23;20481;-90
2023/04/06 03:22:48;;;;;;;27.30;22.00;;;;;;;3.19;70.85;101449.22;6240254;23;20011;-89
2023/04/06 03:25:13;;;;;;;26.23;21.60;;;;;;;3.20;70.67;101453.59;6238786;23;20123;-89
2023/04/06 03:27:39;;;;;;;27.33;21.77;;;;;;;3.18;70.23;101448.38;6240019;23;20012;-89
2023/04/06 03:30:05;;;;;;;27.63;22.35;;;;;;;3.16;70.18;101454.50;6240007;23;20000;-89
2023/04/06 03:32:30;;;;;;;26.27;21.88;;;;;;;3.13;69.96;101449.28;6238283;23;20512;-90
2023/04/06 03:34:56;;;;;;;27.98;21.27;;;;;;;3.16;69.95;101452.75;6238467;23;20003;-89
2023/04/06 03:37:21;;;;;;;25.73;21.67;;;;;;;3.11;70.10;101445.81;6238198;23;20000;-90
2023/04/06 03:39:46;;;;;;;26.80;21.52;;;;;;;3.10;70.10;101437.06;6237484;23;20379;-88
2023/04/06 03:42:12;;;;;;;29.85;21.58;;;;;;;3.12;69.45;101443.16;6237168;23;20011;-88
2023/04/06 03:44:37;;;;;;;26.33;21.40;;;;;;;3.11;69.73;101441.41;6237700;23;20007;-90
2023/04/06 03:47:02;;;;;;;26.45;21.75;;;;;;;3.08;70.48;101432.69;6236437;23;20057;-90
2023/04/06 03:49:27;;;;;;;27.77;21.13;;;;;;;3.07;69.86;101431.81;6238463;22;20019;-89
2023/04/06 03:51:53;;;;;;;24.38;20.23;;;;;;;3.07;70.43;101428.31;6256692;23;20023;-89
2023/04/06 03:54:18;;;;;;;26.55;21.45;;;;;;;3.05;69.80;101440.59;6255956;23;20003;-88
2023/04/06 03:56:43;;;;;;;25.83;21.38;;;;;;;2.97;70.17;101428.41;6252449;23;20011;-90
2023/04/06 03:59:09;;;;;;;27.75;21.13;;;;;;;3.02;70.22;101433.63;6254219;23;20052;-87
2023/04/06 04:01:34;;;;;;;26.20;21.58;;;;;;;3.01;70.30;101437.16;6251421;23;20656;-90
2023/04/06 04:04:00;;;;;;;25.90;21.88;;;;;;;3.00;71.02;101441.50;6244121;23;20055;-90
2023/04/06 04:06:25;;;;;;;26.23;21.67;;;;;;;3.03;71.54;101439.75;6244426;23;20008;-89
2023/04/06 04:08:51;;;;;;;24.70;21.08;;;;;;;2.98;71.59;101439.81;6243201;23;20015;-90
2023/04/06 04:11:16;;;;;;;25.80;20.85;;;;;;;3.02;71.50;101444.16;6217532;23;20085;-89
2023/04/06 04:13:41;;;;;;;26.85;22.77;;;;;;;2.94;71.77;101441.59;6244861;23;20004;-89
2023/04/06 04:16:06;;;;;;;27.77;21.92;;;;;;;2.95;72.38;101437.19;6246188;23;20270;-90
2023/04/06 04:18:32;;;;;;;30.45;22.88;;;;;;;2.92;72.77;101435.47;6245241;23;20004;-88
2023/04/06 04:20:57;;;;;;;34.17;24.25;;;;;;;2.89;71.89;101435.50;6243045;23;20063;-90
2023/04/06 04:23:22;;;;;;;30.00;23.85;;;;;;;2.91;72.41;101441.59;6242673;23;20004;-90
2023/04/06 04:25:48;;;;;;;29.83;23.38;;;;;;;2.87;73.16;101437.28;6242726;23;20019;-89
2023/04/06 04:28:13;;;;;;;28.10;23.27;;;;;;;2.88;72.46;101431.13;6245300;23;20000;-89
2023/04/06 04:30:39;;;;;;;27.15;22.48;;;;;;;2.94;72.61;101438.97;6248201;23;20016;-90
2023/04/06 04:33:04;;;;;;;26.70;21.88;;;;;;;2.93;71.91;101431.09;6249895;23;20120;-88
2023/04/06 04:35:29;;;;;;;25.33;20.90;;;;;;;2.93;71.72;101437.22;6263529;23;20024;-87
2023/04/06 04:37:56;;;;;;;29.20;21.48;;;;;;;2.90;72.42;101429.34;6237349;23;20015;-87
2023/04/06 04:40:21;;;;;;;27.85;21.25;;;;;;;2.85;72.00;101425.03;6264824;23;19999;-89
2023/04/06 04:42:46;;;;;;;29.60;22.50;;;;;;;2.79;72.34;101423.31;6256709;23;20426;-89
2023/04/06 04:45:12;;;;;;;26.30;21.85;;;;;;;2.80;71.97;101427.72;6248890;23;20322;-89
2023/04/06 04:47:38;;;;;;;27.38;21.58;;;;;;;2.80;72.54;101430.34;6245751;22;20016;-92
2023/04/06 04:50:03;;;;;;;28.23;22.60;;;;;;;2.80;72.48;101432.06;6246258;23;20028;-88
2023/04/06 04:52:29;;;;;;;28.17;22.58;;;;;;;2.79;72.19;101431.22;6244069;23;20000;-89
2023/04/06 04:54:54;;;;;;;27.55;21.83;;;;;;;2.81;72.63;101432.09;6243530;23;20088;-89
2023/04/06 04:57:19;;;;;;;26.23;21.35;;;;;;;2.85;72.42;101425.91;6243616;23;20008;-90
2023/04/06 04:59:45;;;;;;;29.35;21.80;;;;;;;2.89;72.52;101430.25;6251253;23;20454;-91
2023/04/06 05:02:10;;;;;;;29.75;21.98;;;;;;;2.93;72.50;101431.97;6268944;22;19992;-91
2023/04/06 05:04:35;;;;;;;28.52;21.33;;;;;;;2.96;71.74;101426.66;6268845;22;20026;-90
2023/04/06 05:07:07;;;;;;;26.73;21.15;;;;;;;2.99;72.02;101429.25;6239707;22;19992;-89
2023/04/06 05:09:33;;;;;;;27.00;20.95;;;;;;;2.95;71.58;101417.03;6267675;22;20031;-89
2023/04/06 05:12:00;;;;;;;25.98;21.25;;;;;;;3.02;72.48;101430.13;6269258;22;20004;-90
2023/04/06 05:14:26;;;;;;;26.05;21.08;;;;;;;3.01;71.50;101431.91;6261949;22;20012;-91
2023/04/06 05:16:51;;;;;;;26.27;20.98;;;;;;;2.95;71.97;101417.03;6248062;23;20449;-89
2023/04/06 05:19:17;;;;;;;25.27;20.73;;;;;;;2.98;71.40;101414.38;6248096;23;20000;-90
2023/04/06 05:21:42;;;;;;;30.27;22.73;;;;;;;3.05;71.39;101416.94;6248756;23;20015;-89
2023/04/06 05:24:08;;;;;;;25.25;21.13;;;;;;;3.08;71.73;101428.28;6247168;23;20010;-90
2023/04/06 05:26:33;;;;;;;27.60;22.48;;;;;;;3.04;71.59;101426.56;6247605;23;20026;-89
2023/04/06 05:28:59;;;;;;;26.98;21.55;;;;;;;3.12;72.29;101432.63;6245766;23;20012;-90
2023/04/06 05:31:24;;;;;;;25.50;21.02;;;;;;;3.10;72.06;101420.41;6244137;23;20004;-90
2023/04/06 05:33:50;;;;;;;27.92;22.00;;;;;;;3.18;72.64;101429.94;6243904;23;20000;-91
2023/04/06 05:36:15;;;;;;;26.73;21.50;;;;;;;3.20;72.42;101420.25;6244905;23;19996;-90
2023/04/06 05:38:41;;;;;;;28.65;21.98;;;;;;;3.24;73.02;101423.75;6242352;23;20012;-90
2023/04/06 05:41:06;;;;;;;28.48;22.42;;;;;;;3.27;72.25;101428.09;6241162;23;20003;-91
2023/04/06 05:43:31;;;;;;;31.25;22.17;;;;;;;3.29;71.99;101419.28;6241876;23;20035;-90
2023/04/06 05:45:57;;;;;;;27.58;21.58;;;;;;;3.34;71.93;101422.72;6240678;23;20000;-89
2023/04/06 05:48:22;;;;;;;24.75;20.20;;;;;;;3.34;71.69;101406.94;6240266;22;20016;-90
2023/04/06 05:50:50;;;;;;;26.00;20.15;;;;;;;3.37;71.06;101406.91;6240458;23;20047;-87
2023/04/06 05:53:16;;;;;;;29.10;20.27;;;;;;;3.43;70.67;101411.25;6245391;23;20040;-89
2023/04/06 05:55:42;;;;;;;22.88;19.05;;;;;;;3.53;70.81;101423.38;6241375;23;20000;-89
2023/04/06 05:58:07;;;;;;;24.42;20.52;;;;;;;3.55;70.58;101410.19;6240428;23;20027;-89
2023/04/06 06:00:33;;;;;;;27.25;21.20;;;;;;;3.56;70.29;101412.84;6239342;23;20003;-87
2023/04/06 06:02:58;;;;;;;24.75;20.50;;;;;;;3.61;68.83;101413.63;6236401;23;20004;-90
2023/04/06 06:05:23;;;;;;;26.80;20.02;;;;;;;3.65;69.22;101414.47;6237559;23;20008;-89
2023/04/06 06:07:49;;;;;;;27.05;20.58;;;;;;;3.76;69.94;101417.81;6237049;23;20011;-89
2023/04/06 06:10:14;;;;;;;27.08;21.02;;;;;;;3.81;69.07;101416.00;6237340;23;19999;-88
2023/04/06 06:12:40;;;;;;;26.20;19.98;;;;;;;3.86;69.49;101408.91;6237934;23;20011;-88
2023/04/06 06:15:06;;;;;;;27.17;20.08;;;;;;;3.97;68.84;101411.38;6211860;23;20712;-88
2023/04/06 06:17:31;;;;;;;24.38;20.05;;;;;;;4.04;68.37;101413.03;6247183;23;20396;-86
2023/04/06 06:19:57;;;;;;;26.73;19.77;;;;;;;4.11;68.43;101411.19;6243883;23;20015;-88
2023/04/06 06:22:22;;;;;;;25.73;19.30;;;;;;;4.14;68.13;101400.56;6237071;23;20015;-89
2023/04/06 06:24:47;;;;;;;26.67;20.52;;;;;;;4.28;68.28;101417.06;6238620;23;20004;-88
2023/04/06 06:27:13;;;;;;;22.33;19.85;;;;;;;4.37;68.06;101419.53;6238149;23;20081;-87
2023/04/06 06:29:38;;;;;;;23.38;19.40;;;;;;;4.54;68.57;101418.41;6235474;23;20512;-87
2023/04/06 06:32:04;;;;;;;24.40;19.55;;;;;;;4.61;67.29;101406.88;6237688;23;20347;-89
2023/04/06 06:34:29;;;;;;;25.17;19.75;;;;;;;4.71;67.04;101413.69;6237965;23;20028;-89
2023/04/06 06:36:55;;;;;;;22.95;19.52;;;;;;;4.79;67.33;101414.44;6237588;23;20056;-88
2023/04/06 06:39:21;;;;;;;24.73;19.25;;;;;;;4.84;66.02;101419.63;6237553;23;20346;-89
2023/04/06 06:41:46;;;;;;;23.80;19.13;;;;;;;4.84;65.07;101417.84;6237184;23;20065;-88
2023/04/06 06:44:12;;;;;;;25.77;20.60;;;;;;;4.83;65.98;101415.25;6238030;23;20015;-89
2023/04/06 06:46:37;;;;;;;25.27;19.08;;;;;;;4.88;66.02;101413.41;6237482;23;20751;-90
2023/04/06 06:49:02;;;;;;;24.98;18.73;;;;;;;4.88;65.82;101422.19;6237807;22;20016;-88
2023/04/06 06:51:28;;;;;;;23.33;17.75;;;;;;;4.90;65.83;101417.75;6238767;23;20004;-88
2023/04/06 06:53:53;;;;;;;22.58;18.38;;;;;;;4.94;65.72;101423.84;6237485;23;20069;-87
2023/04/06 06:56:18;;;;;;;29.13;19.40;;;;;;;4.95;65.61;101415.91;6239218;23;20004;-88
2023/04/06 06:58:44;;;;;;;23.67;18.60;;;;;;;4.96;65.67;101417.63;6236706;23;20000;-90
2023/04/06 07:01:09;;;;;;;26.23;19.35;;;;;;;4.99;66.05;101416.72;6215407;23;20019;-87
2023/04/06 07:03:34;;;;;;;21.80;18.98;;;;;;;4.94;65.45;101419.44;6250908;23;20004;-86
2023/04/06 07:06:00;;;;;;;23.25;18.63;;;;;;;4.90;65.95;101411.63;6256976;22;19996;-87
2023/04/06 07:08:25;;;;;;;22.55;18.65;;;;;;;4.93;66.83;101404.53;6263492;22;19992;-88
2023/04/06 07:10:52;;;;;;;22.50;18.50;;;;;;;4.97;66.34;101411.50;6257188;22;20008;-87
2023/04/06 07:13:22;;;;;;;24.95;19.05;;;;;;;5.02;66.56;101410.50;6229413;23;20015;-87
2023/04/06 07:15:51;;;;;;;23.88;18.50;;;;;;;5.08;67.09;101420.94;6251547;23;20066;-88
2023/04/06 07:18:18;;;;;;;24.50;18.73;;;;;;;5.14;66.10;101410.25;6249638;23;20106;-84
2023/04/06 07:20:43;;;;;;;23.48;18.35;;;;;;;5.19;65.93;101403.16;6254041;23;20042;-85
2023/04/06 07:23:09;;;;;;;23.15;18.65;;;;;;;5.31;66.31;101402.00;6262559;23;20008;-86
2023/04/06 07:25:34;;;;;;;22.33;18.02;;;;;;;5.40;65.37;101408.00;6251250;23;20003;-87
2023/04/06 07:27:59;;;;;;;26.33;19.02;;;;;;;5.42;65.67;101392.13;6244567;23;20079;-88
2023/04/06 07:30:27;;;;;;;22.70;18.65;;;;;;;5.57;65.90;101396.22;6244394;23;20003;-89
2023/04/06 07:32:55;;;;;;;23.15;18.88;;;;;;;5.66;64.86;101403.94;6240287;23;20453;-85
2023/04/06 07:35:20;;;;;;;20.27;17.67;;;;;;;5.73;63.96;101392.34;6240705;23;20008;-89
2023/04/06 07:37:46;;;;;;;23.60;18.65;;;;;;;5.71;63.88;101386.22;6214303;23;20492;-86
2023/04/06 07:40:11;;;;;;;23.20;18.77;;;;;;;5.79;63.49;101391.34;6241097;23;20008;-87
2023/04/06 07:42:37;;;;;;;25.75;18.63;;;;;;;5.89;63.30;101400.78;6240907;23;20069;-87
2023/04/06 07:45:03;;;;;;;20.63;17.65;;;;;;;6.01;63.85;101397.03;6241937;23;20038;-87
2023/04/06 07:47:28;;;;;;;21.38;18.55;;;;;;;6.09;62.85;101400.34;6214568;22;20071;-86
2023/04/06 07:49:55;;;;;;;21.92;17.88;;;;;;;6.16;61.97;101397.53;6239607;23;20050;-86
2023/04/06 07:52:21;;;;;;;22.17;17.95;;;;;;;6.18;62.60;101395.72;6242298;23;20046;-84
2023/04/06 07:54:48;;;;;;;22.13;18.17;;;;;;;6.23;61.86;101387.69;6238659;23;20458;-87
2023/04/06 07:57:13;;;;;;;21.58;18.13;;;;;;;6.27;61.68;101385.81;6238390;23;20012;-87
2023/04/06 07:59:38;;;;;;;23.02;17.52;;;;;;;6.31;61.50;101388.38;6209139;23;20012;-90
2023/04/06 08:02:05;;;;;;;22.88;19.27;;;;;;;6.38;61.97;101387.31;6237577;23;20467;-86
2023/04/06 08:04:30;;;;;;;22.90;18.75;;;;;;;6.42;60.99;101396.91;6238622;23;20000;-87
2023/04/06 08:06:55;;;;;;;28.30;20.67;;;;;;;6.51;61.23;101393.16;6237500;23;20694;-88
2023/04/06 08:09:20;;;;;;;22.58;17.25;;;;;;;6.53;60.57;101393.13;6211855;23;20079;-86
2023/04/06 08:11:47;;;;;;;27.15;18.40;;;;;;;6.58;60.66;101392.09;6239371;23;20012;-86
2023/04/06 08:14:12;;;;;;;24.10;18.33;;;;;;;6.57;60.19;101394.78;6239814;23;20008;-87
2023/04/06 08:16:38;;;;;;;21.58;17.30;;;;;;;6.57;60.37;101394.78;6237923;23;20329;-86
2023/04/06 08:19:04;;;;;;;23.38;18.35;;;;;;;6.64;60.31;101397.22;6240587;23;20416;-86
2023/04/06 08:21:29;;;;;;;21.98;17.88;;;;;;;6.70;60.79;101391.78;6240257;23;20019;-87
2023/04/06 08:23:54;;;;;;;22.95;18.15;;;;;;;6.80;59.45;101395.03;6239477;23;20034;-88
2023/04/06 08:26:19;;;;;;;24.27;18.58;;;;;;;6.86;60.00;101394.91;6240371;23;20349;-87
2023/04/06 08:28:45;;;;;;;23.85;18.08;;;;;;;7.04;60.37;101397.97;6239152;23;20004;-87
2023/04/06 08:31:10;;;;;;;24.52;18.70;;;;;;;7.23;59.67;101400.06;6240037;23;20105;-86
2023/04/06 08:33:36;;;;;;;24.05;18.85;;;;;;;7.27;58.90;101392.88;6238666;23;20641;-86
2023/04/06 08:36:28;;;;;;;22.17;17.95;;;;;;;7.45;59.41;101397.66;6211527;23;20106;-87
2023/04/06 08:38:53;;;;;;;23.85;18.25;;;;;;;7.51;58.59;101393.09;6230854;23;20207;-87
2023/04/06 08:41:19;;;;;;;22.67;17.65;;;;;;;7.62;58.45;101402.47;6238912;23;20484;-86
2023/04/06 08:43:46;;;;;;;24.30;18.15;;;;;;;7.72;58.68;101397.75;6239452;23;20382;-87
2023/04/06 08:46:12;;;;;;;22.67;18.20;;;;;;;7.87;59.09;101394.63;6236579;23;20004;-89
2023/04/06 08:48:42;;;;;;;24.65;18.25;;;;;;;7.94;57.67;101390.88;6232822;22;20871;-87
2023/04/06 08:51:09;;;;;;;22.70;17.63;;;;;;;7.93;57.56;101398.88;6234214;23;20612;-88
2023/04/06 08:53:35;;;;;;;24.30;17.33;;;;;;;7.88;57.60;101391.06;6234126;23;20000;-87
2023/04/06 08:56:02;;;;;;;22.85;17.15;;;;;;;7.77;58.27;101390.50;6230218;23;20034;-87
2023/04/06 08:58:32;;;;;;;24.40;17.75;;;;;;;7.79;58.14;101404.59;6235929;23;20041;-88
2023/04/06 09:00:59;;;;;;;22.65;16.33;;;;;;;7.76;58.40;101396.72;6239476;23;20261;-88
2023/04/06 09:03:27;;;;;;;21.88;16.88;;;;;;;7.83;59.15;101400.94;6206505;23;20107;-88
2023/04/06 09:05:53;;;;;;;24.30;16.83;;;;;;;7.91;59.14;101404.22;6238967;23;20483;-89
2023/04/06 09:08:19;;;;;;;23.63;16.95;;;;;;;8.00;58.29;101408.38;6238370;23;20020;-88
2023/04/06 09:10:45;;;;;;;22.65;17.75;;;;;;;8.08;59.09;101411.66;6237581;23;20004;-89
2023/04/06 09:13:10;;;;;;;22.90;17.15;;;;;;;8.16;59.09;101398.16;6240244;23;20000;-87
2023/04/06 09:15:37;;;;;;;25.33;17.48;;;;;;;8.35;58.95;101406.38;6237656;23;20011;-87
2023/04/06 09:18:02;;;;;;;23.30;16.80;;;;;;;8.39;60.11;101402.75;6242447;23;20016;-89
2023/04/06 09:20:30;;;;;;;24.30;18.30;;;;;;;8.43;60.29;101410.53;6265084;22;20054;-87
2023/04/06 09:22:56;;;;;;;22.98;17.98;;;;;;;8.41;60.53;101407.09;6265556;22;20166;-87
2023/04/06 09:25:22;;;;;;;23.52;18.30;;;;;;;8.48;60.30;101410.38;6264418;22;19988;-86
2023/04/06 09:27:49;;;;;;;24.88;18.50;;;;;;;8.39;59.84;101408.91;6230058;23;20019;-86
2023/04/06 09:30:16;;;;;;;22.33;18.23;;;;;;;8.42;60.99;101418.56;6255354;23;20065;-87
2023/04/06 09:32:49;;;;;;;21.38;17.27;;;;;;;8.32;61.88;101407.38;6263790;23;20006;-86
2023/04/06 09:35:15;;;;;;;24.73;17.17;;;;;;;8.38;63.41;101411.63;6263129;23;20005;-86
2023/04/06 09:37:41;;;;;;;19.65;16.77;;;;;;;8.36;65.17;101409.00;6252914;23;20461;-86
2023/04/06 09:40:07;;;;;;;19.63;15.63;;;;;;;8.37;63.37;101409.91;6243921;23;20008;-87
2023/04/06 09:42:34;;;;;;;21.75;17.13;;;;;;;8.42;65.27;101408.81;6241401;23;20000;-86
2023/04/06 09:45:00;;;;;;;22.63;16.85;;;;;;;8.50;66.05;101403.25;6240504;23;20019;-86
2023/04/06 09:47:26;;;;;;;20.48;16.13;;;;;;;8.43;66.00;101402.59;6238331;22;20024;-86
2023/04/06 09:49:56;;;;;;;21.73;16.70;;;;;;;8.44;67.06;101404.34;6238539;23;20046;-87
2023/04/06 09:52:26;;;;;;;20.02;15.77;;;;;;;8.60;67.81;101412.63;6238392;23;20032;-86
2023/04/06 09:54:53;;;;;;;21.50;15.30;;;;;;;8.60;66.42;101409.97;6237653;23;20122;-87
2023/04/06 09:57:35;;;;;;;19.08;15.23;;;;;;;8.58;65.49;101408.31;6240306;23;20004;-90
2023/04/06 10:00:14;;;;;;;19.92;15.38;;;;;;;8.56;65.74;101405.69;6241521;23;20011;-88
2023/04/06 10:02:56;;;;;;;18.00;14.48;;;;;;;8.55;64.90;101417.22;6235258;23;20012;-88
2023/04/06 10:05:33;;;;;;;19.02;14.20;;;;;;;8.43;65.89;101405.22;6236632;23;20022;-86
2023/04/06 10:08:05;;;;;;;18.98;14.32;;;;;;;8.34;67.00;101407.28;6237261;23;20051;-88
2023/04/06 10:10:30;;;;;;;18.05;13.90;;;;;;;8.26;69.18;101414.63;6238069;23;20004;-87
2023/04/06 10:12:56;;;;;;;18.60;14.02;;;;;;;8.11;70.14;101418.63;6237653;23;20015;-87
2023/04/06 10:15:21;;;;;;;18.83;14.13;;;;;;;8.02;72.42;101414.47;6236530;23;20013;-87
2023/04/06 10:17:47;;;;;;;19.17;13.98;;;;;;;8.03;73.80;101408.28;6236678;23;20031;-86
2023/04/06 10:20:16;;;;;;;16.90;13.65;;;;;;;8.05;72.70;101406.44;6238363;23;20015;-86
2023/04/06 10:22:56;;;;;;;18.10;12.98;;;;;;;7.99;74.85;101420.75;6211081;23;20056;-87
2023/04/06 10:25:32;;;;;;;14.57;12.93;;;;;;;7.86;76.34;101424.72;6240154;23;20058;-87
2023/04/06 10:28:07;;;;;;;16.45;13.15;;;;;;;7.77;77.94;101430.25;6236920;23;20054;-87
2023/04/06 10:30:33;;;;;;;17.15;13.80;;;;;;;7.74;80.96;101422.44;6237594;23;20008;-88
2023/04/06 10:32:59;;;;;;;17.40;12.70;;;;;;;7.76;81.12;101411.78;6237827;23;20614;-88
2023/04/06 10:35:36;;;;;;;17.17;13.70;;;;;;;7.79;82.78;101412.56;6235900;23;20141;-87
2023/04/06 10:38:03;;;;;;;14.98;12.98;;;;;;;7.77;81.51;101414.38;6235846;23;20000;-85
2023/04/06 10:40:29;;;;;;;19.33;13.65;;;;;;;7.85;80.40;101414.13;6240896;23;20008;-85
2023/04/06 10:42:55;;;;;;;16.70;13.10;;;;;;;7.90;79.40;101407.81;6241630;23;20011;-86
2023/04/06 10:45:25;;;;;;;15.10;10.98;;;;;;;7.96;78.68;101398.78;6246359;23;20004;-87
2023/04/06 10:47:54;;;;;;;12.18;10.10;;;;;;;7.91;79.21;101417.47;6249078;22;20012;-85
2023/04/06 10:50:21;;;;;;;11.38;10.10;;;;;;;7.77;81.39;101409.06;6243686;23;20008;-87
2023/04/06 10:52:46;;;;;;;11.07;8.88;;;;;;;7.62;81.95;101413.06;6236381;23;20004;-86
2023/04/06 10:55:14;;;;;;;11.02;8.85;;;;;;;7.47;85.28;101410.84;6235843;23;20004;-87
2023/04/06 10:57:40;;;;;;;13.13;9.63;;;;;;;7.31;87.46;101409.53;6234820;23;20098;-87
2023/04/06 11:00:07;;;;;;;11.07;9.68;;;;;;;7.23;90.83;101409.75;6237990;23;20098;-85
2023/04/06 11:02:35;;;;;;;12.30;9.30;;;;;;;7.18;93.29;101404.59;6237610;23;20442;-86
2023/04/06 11:05:00;;;;;;;10.32;8.70;;;;;;;7.23;93.56;101401.81;6239647;23;20004;-86
2023/04/06 11:07:27;;;;;;;10.43;7.68;;;;;;;7.18;93.71;101399.28;6235079;23;20580;-86
2023/04/06 11:09:53;;;;;;;10.05;8.80;;;;;;;7.18;95.53;101385.19;6237268;23;20015;-86
2023/04/06 11:12:25;;;;;;;10.05;8.05;;;;;;;7.32;94.58;101398.94;6238237;23;20008;-85